VBRA4: Lee Creek, Van Buren

                                SHEF ID:       VBRA4     Lee Creek at Lee Creek Reservoir
STATION TYPE: Stream Gauge
Regulating: Stage = 17.00, Flow = 0

PRECIP STAGE RIV-FLOW BAT-LOAD
in ft cfs volt
Ccp-Rev Ccp-Rev Ccp-Rev Ccp-Rev
(America/Chicago)
04/25 00:00 0.00 20.88 2487 12.11
04/25 01:00 0.00 20.88 2487 12.11
04/25 02:00 0.00 20.85 2351 12.11
04/25 03:00 0.00 20.82 2218 12.11
04/25 04:00 0.00 20.80 2130 12.11
04/25 05:00 0.00 20.77 2002 12.10
04/25 06:00 0.00 20.74 1877 12.10
04/25 07:00 0.00 20.72 1795 12.09
04/25 08:00 0.00 20.70 1714 12.10
04/25 09:00 0.00 20.68 1635 12.10
04/25 10:00 0.00 20.67 1596 12.11
04/25 11:00 0.00 20.65 1520 12.16
04/25 12:00 0.00 20.64 1482 12.27
04/25 13:00 0.00 20.62 1407 12.42
04/25 14:00 0.00 20.61 1371 12.54
04/25 15:00 0.00 20.60 1334 12.80
04/25 16:00 0.00 20.59 1298 12.79
04/25 17:00 0.00 20.58 1263 12.75
04/25 18:00 0.00 20.57 1227 12.46
04/25 19:00 0.00 20.57 1227 12.36
04/25 20:00 0.00 20.56 1193 12.34
04/25 21:00 0.00 20.55 1158 12.31
04/25 22:00 0.00 20.55 1158 12.31
04/25 23:00 ---- ---- ---- ----
Data processed at Sun 26Apr2026 04:57 GMT

NOTICE: If you are parsing this page

Please convert to using our Data API. Starting early 2026 we will be migrating to: https://water.usace.army.mil with modern pages rendered in JavaScript. When this migration completes you will no longer be able to scrape this page! CWMSDataAPI (CDA)

Timeseries IDs (TSIDs)

TSIDs used from left to right in the data table
VANL.Precip-Inc.Total.1Hour.1Hour.Ccp-Rev
VANL.Stage.Inst.1Hour.0.Ccp-Rev
VANL.Flow.Inst.1Hour.0.Ccp-Rev
VANL.Volt-Battery Load.Inst.1Hour.0.Ccp-Rev

                            

All information presented herein is the property of the government of the United States of America and may be revised or deleted at any time without prior notice. Dissemination of this information without the expressed written consent of the Public Affairs Office, Tulsa District U.S. Army Corps of Engineers is strictly prohibited. These data are gathered electronically and, as presented, have NOT undergone any form of quality control. These data are NOT guaranteed to be valid or correct.